Denver International Airport
KDEN : now visible

Airfield :











YOU CAN JOIN US ON...

 
LOGIN :

Register | Disclaimer

   EN    FR    IT 

 









Legend :    VFR   Marginal VFR   IFR   Intensive IFR   Very Intensive IFR
Visi :
Ceiling :
>= 8 km
>= 3000ft
5 to 8 km
1000 to 3000 ft
1500m to 5 km
500 to 1000 ft
800 to 1500m
200 to 500 ft
< 800m
< 200 ft
Symbols :   Thunderstorms  Fog  Heavy snow  Heavy precipitations  Wind > 20 kt






- Airport Elevation : 5431 ft
- IATA code : DEN


KDEN - Denver International

CURRENT METAR :
  • 221053Z 24009KT 10SM FEW075 SCT100 BKN220 01/M07 A2981 RMK AO2 SLP079 T00111067

EXPIRED METARs :
  • 220953Z 24009KT 10SM FEW075 BKN095 BKN200 02/M06 A2982 RMK AO2 SLP076 T00221061
  • 220853Z 21008KT 10SM FEW070 BKN085 OVC220 03/M07 A2981 RMK AO2 SLP072 T00281067 55002

TAF KDEN
Valid from the 22 at 08:00 until the 23 at 12:00 UTC


220808Z 2208/2312 22006KT P6SM BKN080 BKN220
FM221200 VRB04KT P6SM SCT100 BKN220
FM221700 30012KT P6SM FEW140 BKN200
FM222000 35014G24KT P6SM FEW080 FEW220
FM230100 VRB06KT P6SM FEW090 FEW220
FM230500 20007KT P6SM FEW220



MET'MAP, your aeronautical weather chart ! - Copyright ORBIFLY December 2007 - Disclaimer

ORBIFLY MET'MAP TEAM :

Programming & Development : Alexandra Zaïnal
Concept & original design : Baudouin d'Aumeries
Assistance for programming : Marc-Olivier Méhu
Technical & hardware support : Manuel Goepfert

Contact : metmap@orbifly.com




SOURCES & CREDITS :

   NOAA       Earth
Advisory